sensor_id;sensor_type;location;lat;lon;timestamp;P1;durP1;ratioP1;P2;durP2;ratioP2
6077;SDS011;3067;49.470;10.394;2022-12-18T00:02:08;52.67;;;22.63;;
6077;SDS011;3067;49.470;10.394;2022-12-18T00:04:35;49.90;;;23.00;;
6077;SDS011;3067;49.470;10.394;2022-12-18T00:07:02;52.50;;;22.90;;
6077;SDS011;3067;49.470;10.394;2022-12-18T00:09:30;48.57;;;23.67;;
6077;SDS011;3067;49.470;10.394;2022-12-18T00:11:59;49.20;;;24.00;;
6077;SDS011;3067;49.470;10.394;2022-12-18T00:14:26;48.90;;;21.80;;
6077;SDS011;3067;49.470;10.394;2022-12-18T00:16:54;45.47;;;21.47;;
6077;SDS011;3067;49.470;10.394;2022-12-18T00:19:23;43.73;;;21.20;;
6077;SDS011;3067;49.470;10.394;2022-12-18T00:21:51;48.20;;;22.40;;
6077;SDS011;3067;49.470;10.394;2022-12-18T00:24:18;52.63;;;22.90;;
6077;SDS011;3067;49.470;10.394;2022-12-18T00:26:45;47.43;;;21.37;;
6077;SDS011;3067;49.470;10.394;2022-12-18T00:29:14;45.07;;;21.00;;
6077;SDS011;3067;49.470;10.394;2022-12-18T00:31:42;50.10;;;22.73;;
6077;SDS011;3067;49.470;10.394;2022-12-18T00:34:10;48.07;;;21.80;;
6077;SDS011;3067;49.470;10.394;2022-12-18T00:36:38;55.27;;;21.70;;
6077;SDS011;3067;49.470;10.394;2022-12-18T00:39:06;44.37;;;22.20;;
6077;SDS011;3067;49.470;10.394;2022-12-18T00:41:33;39.80;;;19.40;;
6077;SDS011;3067;49.470;10.394;2022-12-18T00:44:20;43.00;;;20.20;;
6077;SDS011;3067;49.470;10.394;2022-12-18T00:46:47;42.87;;;20.87;;
6077;SDS011;3067;49.470;10.394;2022-12-18T00:49:15;45.60;;;20.90;;
6077;SDS011;3067;49.470;10.394;2022-12-18T00:51:42;46.53;;;21.80;;
6077;SDS011;3067;49.470;10.394;2022-12-18T00:54:10;42.00;;;20.83;;
6077;SDS011;3067;49.470;10.394;2022-12-18T00:56:38;48.97;;;22.07;;
6077;SDS011;3067;49.470;10.394;2022-12-18T00:59:05;45.33;;;20.77;;
6077;SDS011;3067;49.470;10.394;2022-12-18T01:01:34;46.37;;;22.07;;
6077;SDS011;3067;49.470;10.394;2022-12-18T01:04:02;52.47;;;22.20;;
6077;SDS011;3067;49.470;10.394;2022-12-18T01:06:30;46.50;;;21.73;;
6077;SDS011;3067;49.470;10.394;2022-12-18T01:08:57;41.03;;;20.53;;
6077;SDS011;3067;49.470;10.394;2022-12-18T01:11:25;40.97;;;20.50;;
6077;SDS011;3067;49.470;10.394;2022-12-18T01:13:52;40.87;;;20.80;;
6077;SDS011;3067;49.470;10.394;2022-12-18T01:16:19;42.50;;;21.13;;
6077;SDS011;3067;49.470;10.394;2022-12-18T01:18:54;46.67;;;19.77;;
6077;SDS011;3067;49.470;10.394;2022-12-18T01:21:22;44.77;;;20.43;;
6077;SDS011;3067;49.470;10.394;2022-12-18T01:23:53;38.30;;;18.93;;
6077;SDS011;3067;49.470;10.394;2022-12-18T01:26:21;38.67;;;17.80;;
6077;SDS011;3067;49.470;10.394;2022-12-18T01:28:49;37.57;;;19.10;;
6077;SDS011;3067;49.470;10.394;2022-12-18T01:31:17;41.30;;;18.93;;
6077;SDS011;3067;49.470;10.394;2022-12-18T01:33:45;40.20;;;18.60;;
6077;SDS011;3067;49.470;10.394;2022-12-18T01:36:18;43.50;;;20.60;;
6077;SDS011;3067;49.470;10.394;2022-12-18T01:38:45;41.73;;;18.47;;
6077;SDS011;3067;49.470;10.394;2022-12-18T01:41:13;40.77;;;20.57;;
6077;SDS011;3067;49.470;10.394;2022-12-18T01:43:46;40.03;;;20.20;;
6077;SDS011;3067;49.470;10.394;2022-12-18T01:46:14;42.00;;;20.63;;
6077;SDS011;3067;49.470;10.394;2022-12-18T01:48:41;34.07;;;20.03;;
6077;SDS011;3067;49.470;10.394;2022-12-18T01:51:09;44.40;;;21.00;;
6077;SDS011;3067;49.470;10.394;2022-12-18T01:53:39;43.53;;;21.57;;
6077;SDS011;3067;49.470;10.394;2022-12-18T01:56:07;45.20;;;20.47;;
6077;SDS011;3067;49.470;10.394;2022-12-18T01:58:36;42.10;;;20.97;;
6077;SDS011;3067;49.470;10.394;2022-12-18T02:01:06;43.63;;;20.40;;
6077;SDS011;3067;49.470;10.394;2022-12-18T02:03:33;39.67;;;19.03;;
6077;SDS011;3067;49.470;10.394;2022-12-18T02:06:03;40.83;;;19.50;;
6077;SDS011;3067;49.470;10.394;2022-12-18T02:08:31;40.43;;;19.33;;
6077;SDS011;3067;49.470;10.394;2022-12-18T02:11:03;42.73;;;20.50;;
6077;SDS011;3067;49.470;10.394;2022-12-18T02:13:34;36.47;;;18.60;;
6077;SDS011;3067;49.470;10.394;2022-12-18T02:16:04;38.10;;;19.10;;
6077;SDS011;3067;49.470;10.394;2022-12-18T02:18:35;36.63;;;18.90;;
6077;SDS011;3067;49.470;10.394;2022-12-18T02:21:06;39.57;;;20.30;;
6077;SDS011;3067;49.470;10.394;2022-12-18T02:23:39;42.57;;;20.80;;
6077;SDS011;3067;49.470;10.394;2022-12-18T02:26:13;42.83;;;20.53;;
6077;SDS011;3067;49.470;10.394;2022-12-18T02:28:42;43.77;;;20.03;;
6077;SDS011;3067;49.470;10.394;2022-12-18T02:31:11;44.50;;;21.10;;
6077;SDS011;3067;49.470;10.394;2022-12-18T02:33:40;47.17;;;21.07;;
6077;SDS011;3067;49.470;10.394;2022-12-18T02:36:08;42.07;;;21.80;;
6077;SDS011;3067;49.470;10.394;2022-12-18T02:38:36;44.00;;;19.40;;
6077;SDS011;3067;49.470;10.394;2022-12-18T02:41:03;44.10;;;21.17;;
6077;SDS011;3067;49.470;10.394;2022-12-18T02:43:33;40.50;;;20.30;;
6077;SDS011;3067;49.470;10.394;2022-12-18T02:46:00;44.43;;;20.93;;
6077;SDS011;3067;49.470;10.394;2022-12-18T02:48:29;43.57;;;20.17;;
6077;SDS011;3067;49.470;10.394;2022-12-18T02:50:59;40.97;;;19.40;;
6077;SDS011;3067;49.470;10.394;2022-12-18T02:53:30;38.33;;;19.50;;
6077;SDS011;3067;49.470;10.394;2022-12-18T02:56:02;42.23;;;21.00;;
6077;SDS011;3067;49.470;10.394;2022-12-18T02:58:34;44.90;;;20.90;;
6077;SDS011;3067;49.470;10.394;2022-12-18T03:01:06;40.83;;;19.53;;
6077;SDS011;3067;49.470;10.394;2022-12-18T03:03:38;46.13;;;21.77;;
6077;SDS011;3067;49.470;10.394;2022-12-18T03:06:07;42.07;;;20.27;;
6077;SDS011;3067;49.470;10.394;2022-12-18T03:08:36;46.80;;;22.03;;
6077;SDS011;3067;49.470;10.394;2022-12-18T03:11:05;57.20;;;22.80;;
6077;SDS011;3067;49.470;10.394;2022-12-18T03:13:35;50.37;;;22.20;;
6077;SDS011;3067;49.470;10.394;2022-12-18T03:16:03;48.03;;;21.40;;
6077;SDS011;3067;49.470;10.394;2022-12-18T03:18:33;51.20;;;22.60;;
6077;SDS011;3067;49.470;10.394;2022-12-18T03:21:02;45.90;;;21.90;;
6077;SDS011;3067;49.470;10.394;2022-12-18T03:23:32;52.20;;;20.70;;
6077;SDS011;3067;49.470;10.394;2022-12-18T03:26:03;49.53;;;22.07;;
6077;SDS011;3067;49.470;10.394;2022-12-18T03:28:31;46.73;;;20.60;;
6077;SDS011;3067;49.470;10.394;2022-12-18T03:31:03;45.50;;;20.90;;
6077;SDS011;3067;49.470;10.394;2022-12-18T03:33:34;49.00;;;22.20;;
6077;SDS011;3067;49.470;10.394;2022-12-18T03:36:04;48.37;;;21.30;;
6077;SDS011;3067;49.470;10.394;2022-12-18T03:38:31;48.40;;;22.80;;
6077;SDS011;3067;49.470;10.394;2022-12-18T03:40:59;47.97;;;22.27;;
6077;SDS011;3067;49.470;10.394;2022-12-18T03:43:34;51.93;;;22.17;;
6077;SDS011;3067;49.470;10.394;2022-12-18T03:46:05;47.97;;;20.30;;
6077;SDS011;3067;49.470;10.394;2022-12-18T03:48:35;46.63;;;21.40;;
6077;SDS011;3067;49.470;10.394;2022-12-18T03:51:05;49.47;;;22.40;;
6077;SDS011;3067;49.470;10.394;2022-12-18T03:53:36;45.57;;;21.00;;
6077;SDS011;3067;49.470;10.394;2022-12-18T03:56:06;53.73;;;22.57;;
6077;SDS011;3067;49.470;10.394;2022-12-18T03:58:34;57.20;;;22.00;;
6077;SDS011;3067;49.470;10.394;2022-12-18T04:01:05;49.93;;;22.00;;
6077;SDS011;3067;49.470;10.394;2022-12-18T04:03:33;51.63;;;22.43;;
6077;SDS011;3067;49.470;10.394;2022-12-18T04:06:01;49.70;;;21.10;;
6077;SDS011;3067;49.470;10.394;2022-12-18T04:08:29;46.87;;;20.93;;
6077;SDS011;3067;49.470;10.394;2022-12-18T04:10:56;43.27;;;20.53;;
6077;SDS011;3067;49.470;10.394;2022-12-18T04:13:24;51.80;;;21.93;;
6077;SDS011;3067;49.470;10.394;2022-12-18T04:15:51;46.43;;;20.97;;
6077;SDS011;3067;49.470;10.394;2022-12-18T04:18:20;48.27;;;20.87;;
6077;SDS011;3067;49.470;10.394;2022-12-18T04:20:47;46.63;;;20.27;;
6077;SDS011;3067;49.470;10.394;2022-12-18T04:23:14;50.70;;;20.90;;
6077;SDS011;3067;49.470;10.394;2022-12-18T04:25:42;55.60;;;22.37;;
6077;SDS011;3067;49.470;10.394;2022-12-18T04:28:09;54.63;;;22.70;;
6077;SDS011;3067;49.470;10.394;2022-12-18T04:30:36;49.57;;;21.23;;
6077;SDS011;3067;49.470;10.394;2022-12-18T04:33:07;55.90;;;21.90;;
6077;SDS011;3067;49.470;10.394;2022-12-18T04:35:36;57.00;;;23.40;;
6077;SDS011;3067;49.470;10.394;2022-12-18T04:38:03;58.37;;;22.60;;
6077;SDS011;3067;49.470;10.394;2022-12-18T04:40:33;54.20;;;21.90;;
6077;SDS011;3067;49.470;10.394;2022-12-18T04:43:00;50.80;;;20.83;;
6077;SDS011;3067;49.470;10.394;2022-12-18T04:45:28;51.20;;;22.23;;
6077;SDS011;3067;49.470;10.394;2022-12-18T04:47:56;50.07;;;20.80;;
6077;SDS011;3067;49.470;10.394;2022-12-18T04:50:24;49.37;;;20.50;;
6077;SDS011;3067;49.470;10.394;2022-12-18T04:52:52;50.57;;;20.47;;
6077;SDS011;3067;49.470;10.394;2022-12-18T04:55:20;47.70;;;19.40;;
6077;SDS011;3067;49.470;10.394;2022-12-18T04:57:51;55.93;;;19.90;;
6077;SDS011;3067;49.470;10.394;2022-12-18T05:00:18;51.57;;;19.60;;
6077;SDS011;3067;49.470;10.394;2022-12-18T05:02:45;53.97;;;20.53;;
6077;SDS011;3067;49.470;10.394;2022-12-18T05:05:13;50.47;;;21.90;;
6077;SDS011;3067;49.470;10.394;2022-12-18T05:07:40;46.97;;;19.97;;
6077;SDS011;3067;49.470;10.394;2022-12-18T05:10:09;48.20;;;19.07;;
6077;SDS011;3067;49.470;10.394;2022-12-18T05:12:36;47.73;;;19.93;;
6077;SDS011;3067;49.470;10.394;2022-12-18T05:15:23;49.10;;;19.50;;
6077;SDS011;3067;49.470;10.394;2022-12-18T05:17:50;53.57;;;20.13;;
6077;SDS011;3067;49.470;10.394;2022-12-18T05:20:17;49.57;;;18.43;;
6077;SDS011;3067;49.470;10.394;2022-12-18T05:22:45;51.47;;;20.10;;
6077;SDS011;3067;49.470;10.394;2022-12-18T05:25:13;59.83;;;21.80;;
6077;SDS011;3067;49.470;10.394;2022-12-18T05:27:41;59.47;;;22.80;;
6077;SDS011;3067;49.470;10.394;2022-12-18T05:30:09;62.30;;;23.03;;
6077;SDS011;3067;49.470;10.394;2022-12-18T05:32:37;84.20;;;28.07;;
6077;SDS011;3067;49.470;10.394;2022-12-18T05:35:05;81.40;;;28.13;;
6077;SDS011;3067;49.470;10.394;2022-12-18T05:37:32;53.80;;;21.73;;
6077;SDS011;3067;49.470;10.394;2022-12-18T05:40:00;49.30;;;19.37;;
6077;SDS011;3067;49.470;10.394;2022-12-18T05:42:29;48.60;;;19.20;;
6077;SDS011;3067;49.470;10.394;2022-12-18T05:44:56;52.57;;;19.47;;
6077;SDS011;3067;49.470;10.394;2022-12-18T05:47:23;46.23;;;19.27;;
6077;SDS011;3067;49.470;10.394;2022-12-18T05:49:51;47.90;;;19.40;;
6077;SDS011;3067;49.470;10.394;2022-12-18T05:52:18;46.77;;;18.40;;
6077;SDS011;3067;49.470;10.394;2022-12-18T05:54:45;46.70;;;19.60;;
6077;SDS011;3067;49.470;10.394;2022-12-18T05:57:12;45.60;;;19.27;;
6077;SDS011;3067;49.470;10.394;2022-12-18T05:59:41;45.13;;;19.63;;
6077;SDS011;3067;49.470;10.394;2022-12-18T06:02:08;46.83;;;18.10;;
6077;SDS011;3067;49.470;10.394;2022-12-18T06:04:36;49.50;;;20.53;;
6077;SDS011;3067;49.470;10.394;2022-12-18T06:07:03;56.10;;;21.23;;
6077;SDS011;3067;49.470;10.394;2022-12-18T06:09:30;52.03;;;20.20;;
6077;SDS011;3067;49.470;10.394;2022-12-18T06:11:58;44.30;;;17.40;;
6077;SDS011;3067;49.470;10.394;2022-12-18T06:14:25;44.30;;;18.93;;
6077;SDS011;3067;49.470;10.394;2022-12-18T06:16:54;41.20;;;17.83;;
6077;SDS011;3067;49.470;10.394;2022-12-18T06:19:21;43.27;;;17.77;;
6077;SDS011;3067;49.470;10.394;2022-12-18T06:21:49;45.37;;;17.37;;
6077;SDS011;3067;49.470;10.394;2022-12-18T06:24:16;42.13;;;16.20;;
6077;SDS011;3067;49.470;10.394;2022-12-18T06:26:43;35.43;;;15.83;;
6077;SDS011;3067;49.470;10.394;2022-12-18T06:29:11;40.27;;;15.63;;
6077;SDS011;3067;49.470;10.394;2022-12-18T06:31:39;42.00;;;16.20;;
6077;SDS011;3067;49.470;10.394;2022-12-18T06:34:07;35.47;;;15.90;;
6077;SDS011;3067;49.470;10.394;2022-12-18T06:36:34;44.60;;;17.00;;
6077;SDS011;3067;49.470;10.394;2022-12-18T06:39:02;44.03;;;17.03;;
6077;SDS011;3067;49.470;10.394;2022-12-18T06:41:29;40.83;;;15.73;;
6077;SDS011;3067;49.470;10.394;2022-12-18T06:43:57;44.07;;;15.40;;
6077;SDS011;3067;49.470;10.394;2022-12-18T06:46:24;37.87;;;14.80;;
6077;SDS011;3067;49.470;10.394;2022-12-18T06:48:51;42.07;;;17.30;;
6077;SDS011;3067;49.470;10.394;2022-12-18T06:51:20;36.23;;;15.43;;
6077;SDS011;3067;49.470;10.394;2022-12-18T06:53:48;37.70;;;15.40;;
6077;SDS011;3067;49.470;10.394;2022-12-18T06:56:16;36.53;;;15.67;;
6077;SDS011;3067;49.470;10.394;2022-12-18T06:58:43;41.17;;;15.40;;
6077;SDS011;3067;49.470;10.394;2022-12-18T07:01:11;38.13;;;15.07;;
6077;SDS011;3067;49.470;10.394;2022-12-18T07:03:38;34.90;;;15.73;;
6077;SDS011;3067;49.470;10.394;2022-12-18T07:06:06;29.90;;;13.83;;
6077;SDS011;3067;49.470;10.394;2022-12-18T07:08:35;35.87;;;14.97;;
6077;SDS011;3067;49.470;10.394;2022-12-18T07:11:03;45.90;;;15.60;;
6077;SDS011;3067;49.470;10.394;2022-12-18T07:13:30;38.90;;;14.97;;
6077;SDS011;3067;49.470;10.394;2022-12-18T07:16:02;32.10;;;13.90;;
6077;SDS011;3067;49.470;10.394;2022-12-18T07:18:30;37.90;;;15.03;;
6077;SDS011;3067;49.470;10.394;2022-12-18T07:20:57;40.20;;;15.27;;
6077;SDS011;3067;49.470;10.394;2022-12-18T07:23:24;36.70;;;14.27;;
6077;SDS011;3067;49.470;10.394;2022-12-18T07:25:53;42.13;;;15.37;;
6077;SDS011;3067;49.470;10.394;2022-12-18T07:28:20;38.80;;;13.97;;
6077;SDS011;3067;49.470;10.394;2022-12-18T07:30:48;41.17;;;14.83;;
6077;SDS011;3067;49.470;10.394;2022-12-18T07:33:16;32.83;;;13.43;;
6077;SDS011;3067;49.470;10.394;2022-12-18T07:35:43;39.73;;;14.73;;
6077;SDS011;3067;49.470;10.394;2022-12-18T07:38:10;37.07;;;12.67;;
6077;SDS011;3067;49.470;10.394;2022-12-18T07:40:38;34.27;;;11.47;;
6077;SDS011;3067;49.470;10.394;2022-12-18T07:43:06;31.83;;;11.73;;
6077;SDS011;3067;49.470;10.394;2022-12-18T07:45:33;38.37;;;13.17;;
6077;SDS011;3067;49.470;10.394;2022-12-18T07:48:01;38.73;;;13.40;;
6077;SDS011;3067;49.470;10.394;2022-12-18T07:50:28;32.83;;;12.97;;
6077;SDS011;3067;49.470;10.394;2022-12-18T07:52:56;28.53;;;12.50;;
6077;SDS011;3067;49.470;10.394;2022-12-18T07:55:23;27.10;;;11.03;;
6077;SDS011;3067;49.470;10.394;2022-12-18T07:57:51;29.43;;;11.17;;
6077;SDS011;3067;49.470;10.394;2022-12-18T08:00:19;32.13;;;11.63;;
6077;SDS011;3067;49.470;10.394;2022-12-18T08:02:47;31.63;;;11.33;;
6077;SDS011;3067;49.470;10.394;2022-12-18T08:05:14;30.10;;;10.43;;
6077;SDS011;3067;49.470;10.394;2022-12-18T08:07:42;28.13;;;10.33;;
6077;SDS011;3067;49.470;10.394;2022-12-18T08:10:09;32.10;;;11.73;;
6077;SDS011;3067;49.470;10.394;2022-12-18T08:12:36;34.37;;;12.07;;
6077;SDS011;3067;49.470;10.394;2022-12-18T08:15:04;31.37;;;10.70;;
6077;SDS011;3067;49.470;10.394;2022-12-18T08:17:33;26.07;;;10.10;;
6077;SDS011;3067;49.470;10.394;2022-12-18T08:20:00;35.87;;;11.60;;
6077;SDS011;3067;49.470;10.394;2022-12-18T08:22:27;25.50;;;9.47;;
6077;SDS011;3067;49.470;10.394;2022-12-18T08:24:55;33.67;;;11.30;;
6077;SDS011;3067;49.470;10.394;2022-12-18T08:27:22;27.63;;;11.10;;
6077;SDS011;3067;49.470;10.394;2022-12-18T08:29:50;30.37;;;10.30;;
6077;SDS011;3067;49.470;10.394;2022-12-18T08:32:17;30.17;;;9.70;;
6077;SDS011;3067;49.470;10.394;2022-12-18T08:34:46;31.50;;;11.33;;
6077;SDS011;3067;49.470;10.394;2022-12-18T08:37:14;32.87;;;10.83;;
6077;SDS011;3067;49.470;10.394;2022-12-18T08:39:41;34.33;;;10.97;;
6077;SDS011;3067;49.470;10.394;2022-12-18T08:42:09;29.90;;;10.97;;
6077;SDS011;3067;49.470;10.394;2022-12-18T08:44:54;29.90;;;10.93;;
6077;SDS011;3067;49.470;10.394;2022-12-18T08:47:21;30.53;;;10.17;;
6077;SDS011;3067;49.470;10.394;2022-12-18T08:49:50;33.53;;;12.40;;
6077;SDS011;3067;49.470;10.394;2022-12-18T08:52:17;26.80;;;9.77;;
6077;SDS011;3067;49.470;10.394;2022-12-18T08:54:45;27.20;;;10.50;;
6077;SDS011;3067;49.470;10.394;2022-12-18T08:57:13;24.17;;;9.90;;
6077;SDS011;3067;49.470;10.394;2022-12-18T08:59:40;33.33;;;10.70;;
6077;SDS011;3067;49.470;10.394;2022-12-18T09:02:08;25.83;;;10.80;;
6077;SDS011;3067;49.470;10.394;2022-12-18T09:04:35;24.17;;;10.00;;
6077;SDS011;3067;49.470;10.394;2022-12-18T09:07:04;25.60;;;9.50;;
6077;SDS011;3067;49.470;10.394;2022-12-18T09:09:31;31.43;;;11.10;;
6077;SDS011;3067;49.470;10.394;2022-12-18T09:11:58;24.20;;;9.67;;
6077;SDS011;3067;49.470;10.394;2022-12-18T09:14:25;31.37;;;11.40;;
6077;SDS011;3067;49.470;10.394;2022-12-18T09:16:53;27.87;;;10.40;;
6077;SDS011;3067;49.470;10.394;2022-12-18T09:19:20;25.70;;;10.93;;
6077;SDS011;3067;49.470;10.394;2022-12-18T09:21:47;27.13;;;9.93;;
6077;SDS011;3067;49.470;10.394;2022-12-18T09:24:16;25.97;;;11.50;;
6077;SDS011;3067;49.470;10.394;2022-12-18T09:26:43;28.03;;;11.00;;
6077;SDS011;3067;49.470;10.394;2022-12-18T09:29:11;31.80;;;11.30;;
6077;SDS011;3067;49.470;10.394;2022-12-18T09:31:38;35.03;;;11.33;;
6077;SDS011;3067;49.470;10.394;2022-12-18T09:34:05;21.10;;;9.40;;
6077;SDS011;3067;49.470;10.394;2022-12-18T09:36:33;24.53;;;10.10;;
6077;SDS011;3067;49.470;10.394;2022-12-18T09:39:00;20.87;;;9.40;;
6077;SDS011;3067;49.470;10.394;2022-12-18T09:41:37;22.23;;;9.77;;
6077;SDS011;3067;49.470;10.394;2022-12-18T09:44:10;31.30;;;10.60;;
6077;SDS011;3067;49.470;10.394;2022-12-18T09:46:39;25.17;;;9.40;;
6077;SDS011;3067;49.470;10.394;2022-12-18T09:49:09;26.27;;;10.97;;
6077;SDS011;3067;49.470;10.394;2022-12-18T09:51:39;21.63;;;9.30;;
6077;SDS011;3067;49.470;10.394;2022-12-18T09:54:11;28.37;;;10.53;;
6077;SDS011;3067;49.470;10.394;2022-12-18T09:56:41;21.73;;;8.60;;
6077;SDS011;3067;49.470;10.394;2022-12-18T09:59:14;23.60;;;10.47;;
6077;SDS011;3067;49.470;10.394;2022-12-18T10:01:45;25.20;;;9.80;;
6077;SDS011;3067;49.470;10.394;2022-12-18T10:04:12;24.83;;;9.53;;
6077;SDS011;3067;49.470;10.394;2022-12-18T10:06:41;22.97;;;10.07;;
6077;SDS011;3067;49.470;10.394;2022-12-18T10:09:11;25.80;;;9.50;;
6077;SDS011;3067;49.470;10.394;2022-12-18T10:11:48;28.50;;;9.93;;
6077;SDS011;3067;49.470;10.394;2022-12-18T10:14:17;23.40;;;10.70;;
6077;SDS011;3067;49.470;10.394;2022-12-18T10:16:48;26.80;;;10.10;;
6077;SDS011;3067;49.470;10.394;2022-12-18T10:19:20;25.00;;;10.70;;
6077;SDS011;3067;49.470;10.394;2022-12-18T10:21:51;25.50;;;9.43;;
6077;SDS011;3067;49.470;10.394;2022-12-18T10:24:24;25.70;;;9.33;;
6077;SDS011;3067;49.470;10.394;2022-12-18T10:26:56;28.90;;;9.80;;
6077;SDS011;3067;49.470;10.394;2022-12-18T10:29:26;24.53;;;10.50;;
6077;SDS011;3067;49.470;10.394;2022-12-18T10:31:54;27.77;;;10.60;;
6077;SDS011;3067;49.470;10.394;2022-12-18T10:34:21;21.73;;;9.57;;
6077;SDS011;3067;49.470;10.394;2022-12-18T10:36:48;19.27;;;9.00;;
6077;SDS011;3067;49.470;10.394;2022-12-18T10:39:16;25.27;;;10.33;;
6077;SDS011;3067;49.470;10.394;2022-12-18T10:41:44;21.23;;;9.47;;
6077;SDS011;3067;49.470;10.394;2022-12-18T10:44:14;27.83;;;10.57;;
6077;SDS011;3067;49.470;10.394;2022-12-18T10:46:43;22.80;;;9.23;;
6077;SDS011;3067;49.470;10.394;2022-12-18T10:49:22;23.63;;;9.70;;
6077;SDS011;3067;49.470;10.394;2022-12-18T10:51:50;20.60;;;9.53;;
6077;SDS011;3067;49.470;10.394;2022-12-18T10:54:19;24.40;;;9.43;;
6077;SDS011;3067;49.470;10.394;2022-12-18T10:56:49;21.90;;;8.60;;
6077;SDS011;3067;49.470;10.394;2022-12-18T10:59:17;22.80;;;9.33;;
6077;SDS011;3067;49.470;10.394;2022-12-18T11:01:46;27.80;;;10.17;;
6077;SDS011;3067;49.470;10.394;2022-12-18T11:04:16;31.30;;;10.53;;
6077;SDS011;3067;49.470;10.394;2022-12-18T11:06:52;25.50;;;9.57;;
6077;SDS011;3067;49.470;10.394;2022-12-18T11:09:21;22.70;;;9.30;;
6077;SDS011;3067;49.470;10.394;2022-12-18T11:11:48;24.67;;;9.80;;
6077;SDS011;3067;49.470;10.394;2022-12-18T11:14:20;22.20;;;9.40;;
6077;SDS011;3067;49.470;10.394;2022-12-18T11:16:48;24.23;;;9.90;;
6077;SDS011;3067;49.470;10.394;2022-12-18T11:19:20;19.90;;;8.97;;
6077;SDS011;3067;49.470;10.394;2022-12-18T11:21:49;18.60;;;9.20;;
6077;SDS011;3067;49.470;10.394;2022-12-18T11:24:20;24.07;;;9.73;;
6077;SDS011;3067;49.470;10.394;2022-12-18T11:26:50;22.33;;;10.00;;
6077;SDS011;3067;49.470;10.394;2022-12-18T11:29:27;23.60;;;10.50;;
6077;SDS011;3067;49.470;10.394;2022-12-18T11:32:08;28.30;;;10.27;;
6077;SDS011;3067;49.470;10.394;2022-12-18T11:34:46;23.80;;;9.70;;
6077;SDS011;3067;49.470;10.394;2022-12-18T11:37:15;22.90;;;10.50;;
6077;SDS011;3067;49.470;10.394;2022-12-18T11:39:49;28.07;;;10.40;;
6077;SDS011;3067;49.470;10.394;2022-12-18T11:42:19;25.03;;;9.90;;
6077;SDS011;3067;49.470;10.394;2022-12-18T11:44:49;23.73;;;10.13;;
6077;SDS011;3067;49.470;10.394;2022-12-18T11:47:20;24.93;;;10.07;;
6077;SDS011;3067;49.470;10.394;2022-12-18T11:49:50;22.40;;;9.97;;
6077;SDS011;3067;49.470;10.394;2022-12-18T11:52:19;19.00;;;10.27;;
6077;SDS011;3067;49.470;10.394;2022-12-18T11:54:50;25.13;;;10.40;;
6077;SDS011;3067;49.470;10.394;2022-12-18T11:57:20;27.37;;;10.67;;
6077;SDS011;3067;49.470;10.394;2022-12-18T11:59:54;19.47;;;9.60;;
6077;SDS011;3067;49.470;10.394;2022-12-18T12:02:28;23.57;;;10.70;;
6077;SDS011;3067;49.470;10.394;2022-12-18T12:05:03;28.43;;;9.97;;
6077;SDS011;3067;49.470;10.394;2022-12-18T12:07:35;25.00;;;10.50;;
6077;SDS011;3067;49.470;10.394;2022-12-18T12:10:09;27.93;;;9.87;;
6077;SDS011;3067;49.470;10.394;2022-12-18T12:12:48;25.27;;;10.10;;
6077;SDS011;3067;49.470;10.394;2022-12-18T12:15:23;29.73;;;11.57;;
6077;SDS011;3067;49.470;10.394;2022-12-18T12:17:53;23.47;;;10.60;;
6077;SDS011;3067;49.470;10.394;2022-12-18T12:20:24;24.43;;;11.33;;
6077;SDS011;3067;49.470;10.394;2022-12-18T12:22:57;23.07;;;10.47;;
6077;SDS011;3067;49.470;10.394;2022-12-18T12:25:31;24.03;;;10.47;;
6077;SDS011;3067;49.470;10.394;2022-12-18T12:28:02;22.60;;;11.20;;
6077;SDS011;3067;49.470;10.394;2022-12-18T12:30:35;25.37;;;11.33;;
6077;SDS011;3067;49.470;10.394;2022-12-18T12:33:10;25.93;;;11.60;;
6077;SDS011;3067;49.470;10.394;2022-12-18T12:35:42;29.23;;;11.93;;
6077;SDS011;3067;49.470;10.394;2022-12-18T12:38:12;26.03;;;12.17;;
6077;SDS011;3067;49.470;10.394;2022-12-18T12:40:42;25.40;;;11.53;;
6077;SDS011;3067;49.470;10.394;2022-12-18T12:43:14;29.03;;;12.50;;
6077;SDS011;3067;49.470;10.394;2022-12-18T12:45:44;25.67;;;11.93;;
6077;SDS011;3067;49.470;10.394;2022-12-18T12:48:16;22.87;;;11.80;;
6077;SDS011;3067;49.470;10.394;2022-12-18T12:50:44;23.70;;;11.33;;
6077;SDS011;3067;49.470;10.394;2022-12-18T12:53:14;27.20;;;11.97;;
6077;SDS011;3067;49.470;10.394;2022-12-18T12:55:43;21.80;;;11.10;;
6077;SDS011;3067;49.470;10.394;2022-12-18T12:58:12;28.13;;;12.57;;
6077;SDS011;3067;49.470;10.394;2022-12-18T13:00:46;25.90;;;12.00;;
6077;SDS011;3067;49.470;10.394;2022-12-18T13:03:19;25.97;;;11.07;;
6077;SDS011;3067;49.470;10.394;2022-12-18T13:05:50;26.10;;;11.63;;
6077;SDS011;3067;49.470;10.394;2022-12-18T13:08:24;25.17;;;11.00;;
6077;SDS011;3067;49.470;10.394;2022-12-18T13:10:51;20.80;;;10.70;;
6077;SDS011;3067;49.470;10.394;2022-12-18T13:13:49;23.70;;;11.03;;
6077;SDS011;3067;49.470;10.394;2022-12-18T13:16:19;24.10;;;10.93;;
6077;SDS011;3067;49.470;10.394;2022-12-18T13:18:50;24.63;;;11.53;;
6077;SDS011;3067;49.470;10.394;2022-12-18T13:21:20;24.43;;;11.80;;
6077;SDS011;3067;49.470;10.394;2022-12-18T13:23:50;26.90;;;12.27;;
6077;SDS011;3067;49.470;10.394;2022-12-18T13:29:05;24.27;;;11.37;;
6077;SDS011;3067;49.470;10.394;2022-12-18T13:34:23;24.73;;;11.80;;
6077;SDS011;3067;49.470;10.394;2022-12-18T13:36:51;24.40;;;11.17;;
6077;SDS011;3067;49.470;10.394;2022-12-18T13:39:23;27.23;;;12.67;;
6077;SDS011;3067;49.470;10.394;2022-12-18T13:41:51;34.17;;;12.63;;
6077;SDS011;3067;49.470;10.394;2022-12-18T13:44:28;27.33;;;12.70;;
6077;SDS011;3067;49.470;10.394;2022-12-18T13:46:58;29.53;;;13.50;;
6077;SDS011;3067;49.470;10.394;2022-12-18T13:49:28;43.70;;;17.13;;
6077;SDS011;3067;49.470;10.394;2022-12-18T13:51:59;35.17;;;14.53;;
6077;SDS011;3067;49.470;10.394;2022-12-18T13:54:29;35.63;;;14.57;;
6077;SDS011;3067;49.470;10.394;2022-12-18T13:56:59;27.67;;;12.23;;
6077;SDS011;3067;49.470;10.394;2022-12-18T13:59:26;22.40;;;11.07;;
6077;SDS011;3067;49.470;10.394;2022-12-18T14:02:00;26.10;;;11.67;;
6077;SDS011;3067;49.470;10.394;2022-12-18T14:04:29;26.10;;;12.10;;
6077;SDS011;3067;49.470;10.394;2022-12-18T14:06:57;26.47;;;10.60;;
6077;SDS011;3067;49.470;10.394;2022-12-18T14:09:27;28.10;;;11.70;;
6077;SDS011;3067;49.470;10.394;2022-12-18T14:11:55;21.73;;;10.00;;
6077;SDS011;3067;49.470;10.394;2022-12-18T14:14:44;25.90;;;11.60;;
6077;SDS011;3067;49.470;10.394;2022-12-18T14:17:12;26.47;;;11.00;;
6077;SDS011;3067;49.470;10.394;2022-12-18T14:19:45;32.87;;;12.93;;
6077;SDS011;3067;49.470;10.394;2022-12-18T14:22:14;25.90;;;11.47;;
6077;SDS011;3067;49.470;10.394;2022-12-18T14:24:42;24.93;;;10.60;;
6077;SDS011;3067;49.470;10.394;2022-12-18T14:27:13;31.43;;;12.20;;
6077;SDS011;3067;49.470;10.394;2022-12-18T14:29:46;26.87;;;11.53;;
6077;SDS011;3067;49.470;10.394;2022-12-18T14:32:14;25.77;;;10.03;;
6077;SDS011;3067;49.470;10.394;2022-12-18T14:34:42;30.50;;;11.97;;
6077;SDS011;3067;49.470;10.394;2022-12-18T14:37:11;27.23;;;11.67;;
6077;SDS011;3067;49.470;10.394;2022-12-18T14:39:40;26.33;;;10.57;;
6077;SDS011;3067;49.470;10.394;2022-12-18T14:42:10;27.53;;;11.07;;
6077;SDS011;3067;49.470;10.394;2022-12-18T14:44:37;25.07;;;12.07;;
6077;SDS011;3067;49.470;10.394;2022-12-18T14:47:04;27.23;;;11.47;;
6077;SDS011;3067;49.470;10.394;2022-12-18T14:49:32;26.30;;;11.60;;
6077;SDS011;3067;49.470;10.394;2022-12-18T14:52:02;28.70;;;11.53;;
6077;SDS011;3067;49.470;10.394;2022-12-18T14:54:31;22.27;;;10.20;;